Terminal Aerodrome Forecast
Issued by NWS Lake Charles, LA

Home | Current Version | Previous Version | Text Only | Print | Product List | Glossary On
Versions: 1 2 3 4 5 6 7 8 9 10 11 12 13 14 15 16
000
FTUS44 KLCH 301732
TAFAEX
TAF
KAEX 301732Z 3018/3118 16004KT P6SM VCSH SCT050 SCT250
     FM310000 VRB04KT P6SM SKC
     FM310800 VRB03KT 5SM BR SKC
      TEMPO 3109/3113 2SM BR
     FM311400 VRB05KT P6SM SCT030=

USA.gov is the U.S. government's official web portal to all federal, state and local government web resources and services.